Time;durP1;ratioP1;P1;durP2;ratioP2;P2;SDS_P1;SDS_P2;PMS_P1;PMS_P2;Temp;Humidity;BMP_temperature;BMP_pressure;BME280_temperature;BME280_humidity;BME280_pressure;Samples;Min_cycle;Max_cycle;Signal;HPM_P1;HPM_P2
2023/04/07 00:01:17;;;;;;;;;;;8.30;99.90;;;;;;5087632;28;19924;-83
2023/04/07 00:03:44;;;;;;;;;;;8.30;99.90;;;;;;5097649;28;19992;-82
2023/04/07 00:06:11;;;;;;;;;;;8.40;99.90;;;;;;5093276;28;19952;-82
2023/04/07 00:08:39;;;;;;;;;;;7.80;99.90;;;;;;5090220;28;19935;-82
2023/04/07 00:11:07;;;;;;;;;;;8.40;99.90;;;;;;5100227;28;19912;-82
2023/04/07 00:13:34;;;;;;;;;;;8.40;99.90;;;;;;5095544;28;19928;-81
2023/04/07 00:16:01;;;;;;;;;;;8.40;99.90;;;;;;5083300;28;19929;-81
2023/04/07 00:18:28;;;;;;;;;;;8.40;99.90;;;;;;5094317;28;19928;-81
2023/04/07 00:20:55;;;;;;;;;;;8.40;99.90;;;;;;5098309;28;19928;-81
2023/04/07 00:23:22;;;;;;;;;;;8.40;99.90;;;;;;5093404;28;19963;-81
2023/04/07 00:25:51;;;;;;;;;;;8.40;99.90;;;;;;5092125;28;19924;-82
2023/04/07 00:28:18;;;;;;;;;;;8.40;99.90;;;;;;5091972;28;20014;-82
2023/04/07 00:30:45;;;;;;;;;;;8.30;99.90;;;;;;5093913;28;20275;-81
2023/04/07 00:33:12;;;;;;;;;;;8.30;99.90;;;;;;5085257;28;19967;-82
2023/04/07 00:35:39;;;;;;;;;;;8.30;99.90;;;;;;5092637;28;20306;-83
2023/04/07 00:38:06;;;;;;;;;;;8.30;99.90;;;;;;5095454;28;20318;-82
2023/04/07 00:40:33;;;;;;;;;;;8.40;99.90;;;;;;5087581;28;20018;-81
2023/04/07 00:43:02;;;;;;;;;;;8.40;99.90;;;;;;5081745;28;20382;-82
2023/04/07 00:45:29;;;;;;;;;;;8.40;99.90;;;;;;5081184;28;19925;-82
2023/04/07 00:47:57;;;;;;;;;;;8.40;99.90;;;;;;5090186;28;19928;-82
2023/04/07 00:50:24;;;;;;;;;;;8.40;99.90;;;;;;5078661;28;19971;-83
2023/04/07 00:52:51;;;;;;;;;;;8.40;99.90;;;;;;5097260;28;19924;-83
2023/04/07 00:55:18;;;;;;;;;;;8.50;99.90;;;;;;5091364;28;19928;-84
2023/04/07 00:57:46;;;;;;;;;;;8.50;99.90;;;;;;5076623;28;20047;-83
2023/04/07 01:00:15;;;;;;;;;;;8.50;99.90;;;;;;5093674;28;19924;-83
2023/04/07 01:02:45;;;;;;;;;;;8.50;99.90;;;;;;5082168;28;19933;-83
2023/04/07 01:05:15;;;;;;;;;;;8.60;99.90;;;;;;5078761;28;19973;-83
2023/04/07 01:07:49;;;;;;;;;;;8.60;99.90;;;;;;5087854;28;20027;-82
2023/04/07 01:10:19;;;;;;;;;;;8.60;99.90;;;;;;5084091;28;19931;-80
2023/04/07 01:13:02;;;;;;;;;;;8.70;99.90;;;;;;5078825;28;19925;-81
2023/04/07 01:15:33;;;;;;;;;;;8.70;99.90;;;;;;5089278;28;19925;-81
2023/04/07 01:18:07;;;;;;;;;;;8.70;99.90;;;;;;5081555;28;19935;-81
2023/04/07 01:20:35;;;;;;;;;;;8.70;99.90;;;;;;5087696;28;19924;-82
2023/04/07 01:23:04;;;;;;;;;;;8.70;99.90;;;;;;5075679;28;19939;-83
2023/04/07 01:25:58;;;;;;;;;;;8.70;99.90;;;;;;5074937;28;19924;-84
2023/04/07 01:28:49;;;;;;;;;;;8.70;99.90;;;;;;5042207;28;19929;-84
2023/04/07 01:31:17;;;;;;;;;;;8.80;99.90;;;;;;5087412;28;20548;-84
2023/04/07 01:33:45;;;;;;;;;;;8.80;99.90;;;;;;5083469;28;19935;-84
2023/04/07 01:36:13;;;;;;;;;;;8.90;99.90;;;;;;5087657;28;19963;-83
2023/04/07 01:38:40;;;;;;;;;;;8.90;99.90;;;;;;5090782;28;19967;-83
2023/04/07 01:41:08;;;;;;;;;;;8.90;99.90;;;;;;5098736;28;19928;-84
2023/04/07 01:43:36;;;;;;;;;;;9.00;99.90;;;;;;5079920;28;19928;-83
2023/04/07 01:46:03;;;;;;;;;;;9.00;99.90;;;;;;5086003;28;19994;-83
2023/04/07 01:48:32;;;;;;;;;;;9.00;99.90;;;;;;5090396;28;19931;-82
2023/04/07 01:51:00;;;;;;;;;;;9.00;99.90;;;;;;5096784;28;19916;-84
2023/04/07 01:53:27;;;;;;;;;;;9.00;99.90;;;;;;5094261;28;20027;-83
2023/04/07 01:55:54;;;;;;;;;;;9.00;99.90;;;;;;5095658;28;19932;-84
2023/04/07 01:58:21;;;;;;;;;;;9.00;99.90;;;;;;5094003;28;20503;-84
2023/04/07 02:00:49;;;;;;;;;;;9.00;99.90;;;;;;5076913;28;20319;-84
2023/04/07 02:03:23;;;;;;;;;;;8.90;99.90;;;;;;5087037;28;19940;-83
2023/04/07 02:05:53;;;;;;;;;;;8.90;99.90;;;;;;5093898;28;19935;-82
2023/04/07 02:08:24;;;;;;;;;;;9.00;99.90;;;;;;5093666;28;20431;-82
2023/04/07 02:10:52;;;;;;;;;;;9.00;99.90;;;;;;5094445;28;19939;-82
2023/04/07 02:13:20;;;;;;;;;;;9.00;99.90;;;;;;5092860;28;19932;-83
2023/04/07 02:15:50;;;;;;;;;;;9.00;99.90;;;;;;5086472;28;19956;-83
2023/04/07 02:18:20;;;;;;;;;;;9.00;99.90;;;;;;5095243;28;19947;-83
2023/04/07 02:20:47;;;;;;;;;;;9.00;99.90;;;;;;5097983;28;19932;-82
2023/04/07 02:23:16;;;;;;;;;;;9.00;99.90;;;;;;5084914;28;19924;-82
2023/04/07 02:25:43;;;;;;;;;;;8.90;99.90;;;;;;5086470;28;20034;-82
2023/04/07 02:28:10;;;;;;;;;;;8.90;99.90;;;;;;5097319;28;19935;-82
2023/04/07 02:30:37;;;;;;;;;;;9.00;99.90;;;;;;5096292;28;19924;-81
2023/04/07 02:33:04;;;;;;;;;;;9.00;99.90;;;;;;5085499;28;20307;-82
2023/04/07 02:35:31;;;;;;;;;;;9.00;99.90;;;;;;5072371;28;20391;-82
2023/04/07 02:37:58;;;;;;;;;;;9.00;99.90;;;;;;5093028;28;19935;-81
2023/04/07 02:40:26;;;;;;;;;;;9.00;99.90;;;;;;5098056;28;19924;-82
2023/04/07 02:42:53;;;;;;;;;;;9.00;99.90;;;;;;5082199;28;19942;-83
2023/04/07 02:45:22;;;;;;;;;;;9.00;99.90;;;;;;5079795;28;19982;-81
2023/04/07 02:47:49;;;;;;;;;;;9.00;99.90;;;;;;5083665;28;20273;-84
2023/04/07 02:50:18;;;;;;;;;;;9.00;99.90;;;;;;5097463;28;19928;-83
2023/04/07 02:52:44;;;;;;;;;;;9.00;99.90;;;;;;5098098;28;19928;-83
2023/04/07 02:55:14;;;;;;;;;;;9.00;99.90;;;;;;5097583;28;19934;-83
2023/04/07 02:57:43;;;;;;;;;;;9.00;99.90;;;;;;5083447;28;19950;-83
2023/04/07 03:00:24;;;;;;;;;;;9.00;99.90;;;;;;5081517;28;19940;-83
2023/04/07 03:02:59;;;;;;;;;;;9.00;99.90;;;;;;5097070;28;20015;-83
2023/04/07 03:05:28;;;;;;;;;;;9.00;99.90;;;;;;5097418;28;19935;-84
2023/04/07 03:07:55;;;;;;;;;;;9.00;99.90;;;;;;5078772;28;19928;-83
2023/04/07 03:10:22;;;;;;;;;;;9.00;99.90;;;;;;5076900;28;20014;-84
2023/04/07 03:12:52;;;;;;;;;;;9.00;99.90;;;;;;5091061;28;19950;-86
2023/04/07 03:15:19;;;;;;;;;;;9.00;99.90;;;;;;5084687;28;20307;-82
2023/04/07 03:17:47;;;;;;;;;;;9.00;99.90;;;;;;5085084;28;19928;-83
2023/04/07 03:20:16;;;;;;;;;;;9.00;99.90;;;;;;5078271;28;20296;-83
2023/04/07 03:22:43;;;;;;;;;;;9.00;99.90;;;;;;5088157;28;20302;-83
2023/04/07 03:25:16;;;;;;;;;;;9.00;99.90;;;;;;5093698;28;19972;-82
2023/04/07 03:27:43;;;;;;;;;;;9.00;99.90;;;;;;5096625;28;19936;-81
2023/04/07 03:30:15;;;;;;;;;;;9.00;99.90;;;;;;5097055;28;20027;-83
2023/04/07 03:32:43;;;;;;;;;;;9.00;99.90;;;;;;5096063;28;19924;-83
2023/04/07 03:35:11;;;;;;;;;;;9.00;99.90;;;;;;5090656;28;19931;-82
2023/04/07 03:37:38;;;;;;;;;;;9.00;99.90;;;;;;5092448;28;19929;-83
2023/04/07 03:40:10;;;;;;;;;;;9.00;99.90;;;;;;5075597;28;19932;-82
2023/04/07 03:42:37;;;;;;;;;;;9.00;99.90;;;;;;5079843;28;19964;-82
2023/04/07 03:45:07;;;;;;;;;;;9.00;99.90;;;;;;5080336;28;19925;-82
2023/04/07 03:47:38;;;;;;;;;;;9.00;99.90;;;;;;5094758;28;20649;-82
2023/04/07 03:50:10;;;;;;;;;;;8.90;99.90;;;;;;5079450;28;19934;-82
2023/04/07 03:52:48;;;;;;;;;;;8.90;99.90;;;;;;5082739;28;20354;-86
2023/04/07 03:55:26;;;;;;;;;;;9.00;99.90;;;;;;5085181;28;19935;-84
2023/04/07 03:57:58;;;;;;;;;;;9.00;99.90;;;;;;5078311;28;19929;-83
2023/04/07 04:00:32;;;;;;;;;;;9.00;99.90;;;;;;5080276;28;20338;-82
2023/04/07 04:03:12;;;;;;;;;;;8.90;99.90;;;;;;5078688;28;19931;-83
2023/04/07 04:05:57;;;;;;;;;;;8.90;99.90;;;;;;5090833;28;19932;-82
2023/04/07 04:08:28;;;;;;;;;;;8.90;99.90;;;;;;5098696;28;19935;-82
2023/04/07 04:10:56;;;;;;;;;;;8.90;99.90;;;;;;5097243;28;20019;-83
2023/04/07 04:13:24;;;;;;;;;;;9.00;99.90;;;;;;5097366;28;19927;-83
2023/04/07 04:15:51;;;;;;;;;;;9.00;99.90;;;;;;5098453;28;19966;-83
2023/04/07 04:18:20;;;;;;;;;;;9.00;99.90;;;;;;5096397;28;19924;-82
2023/04/07 04:20:47;;;;;;;;;;;9.00;99.90;;;;;;5095777;28;19928;-84
2023/04/07 04:23:15;;;;;;;;;;;9.00;99.90;;;;;;5096588;28;19936;-82
2023/04/07 04:25:43;;;;;;;;;;;9.00;99.90;;;;;;5097612;28;19924;-83
2023/04/07 04:28:12;;;;;;;;;;;9.00;99.90;;;;;;5096630;28;19924;-83
2023/04/07 04:30:39;;;;;;;;;;;9.00;99.90;;;;;;5097658;28;20006;-84
2023/04/07 04:33:09;;;;;;;;;;;9.00;99.90;;;;;;5095966;28;20058;-84
2023/04/07 04:35:44;;;;;;;;;;;9.00;99.90;;;;;;5096606;28;20413;-84
2023/04/07 04:38:16;;;;;;;;;;;9.00;99.90;;;;;;5096487;28;19981;-84
2023/04/07 04:40:48;;;;;;;;;;;8.90;99.90;;;;;;5096305;28;19971;-85
2023/04/07 04:43:18;;;;;;;;;;;8.90;99.90;;;;;;5097769;28;19984;-84
2023/04/07 04:45:45;;;;;;;;;;;8.90;99.90;;;;;;5092052;28;19936;-84
2023/04/07 04:48:14;;;;;;;;;;;8.90;99.90;;;;;;5076523;28;20012;-85
2023/04/07 04:50:42;;;;;;;;;;;8.80;99.90;;;;;;5081546;28;20000;-84
2023/04/07 04:53:13;;;;;;;;;;;8.80;99.90;;;;;;5099191;28;20361;-84
2023/04/07 04:55:50;;;;;;;;;;;8.80;99.90;;;;;;5097921;28;19995;-85
2023/04/07 04:58:21;;;;;;;;;;;8.80;99.90;;;;;;5098764;28;19963;-85
2023/04/07 05:00:56;;;;;;;;;;;8.80;99.90;;;;;;5099477;28;19966;-84
2023/04/07 05:03:26;;;;;;;;;;;8.80;99.90;;;;;;5099805;28;19924;-85
2023/04/07 05:05:53;;;;;;;;;;;8.80;99.90;;;;;;5097149;28;20427;-85
2023/04/07 05:08:24;;;;;;;;;;;8.80;99.90;;;;;;5098023;28;19942;-84
2023/04/07 05:10:52;;;;;;;;;;;8.80;99.90;;;;;;5098280;28;20323;-85
2023/04/07 05:13:24;;;;;;;;;;;8.80;99.90;;;;;;5098251;28;19934;-84
2023/04/07 05:15:53;;;;;;;;;;;8.80;99.90;;;;;;5098063;28;19963;-84
2023/04/07 05:18:27;;;;;;;;;;;8.80;99.90;;;;;;5097986;28;19931;-85
2023/04/07 05:20:56;;;;;;;;;;;8.80;99.90;;;;;;5098786;28;20284;-85
2023/04/07 05:23:31;;;;;;;;;;;8.80;99.90;;;;;;5099236;28;19934;-85
2023/04/07 05:26:01;;;;;;;;;;;8.80;99.90;;;;;;5099172;28;20030;-85
2023/04/07 05:28:29;;;;;;;;;;;8.80;99.90;;;;;;5098361;28;19950;-85
2023/04/07 05:31:00;;;;;;;;;;;8.80;99.90;;;;;;5098421;28;19992;-85
2023/04/07 05:33:30;;;;;;;;;;;8.90;99.90;;;;;;5099919;28;19924;-85
2023/04/07 05:35:58;;;;;;;;;;;8.90;99.90;;;;;;5096909;28;19928;-82
2023/04/07 05:38:26;;;;;;;;;;;8.80;99.90;;;;;;5084290;28;19936;-82
2023/04/07 05:40:58;;;;;;;;;;;8.90;99.90;;;;;;5094381;28;19924;-84
2023/04/07 05:43:30;;;;;;;;;;;8.80;99.90;;;;;;5096794;28;19973;-83
2023/04/07 05:45:57;;;;;;;;;;;8.90;99.90;;;;;;5079713;28;19951;-82
2023/04/07 05:48:25;;;;;;;;;;;8.90;99.90;;;;;;5077388;28;19928;-81
2023/04/07 05:50:53;;;;;;;;;;;8.90;99.90;;;;;;5092496;28;19935;-82
2023/04/07 05:53:20;;;;;;;;;;;8.90;99.90;;;;;;5096689;28;19924;-83
2023/04/07 05:55:49;;;;;;;;;;;8.90;99.90;;;;;;5089880;28;19928;-82
2023/04/07 05:58:36;;;;;;;;;;;8.90;99.90;;;;;;5091206;28;20306;-79
2023/04/07 06:01:03;;;;;;;;;;;9.00;99.90;;;;;;5097823;28;19954;-82
2023/04/07 06:03:30;;;;;;;;;;;9.00;99.90;;;;;;5097585;28;20367;-81
2023/04/07 06:06:11;;;;;;;;;;;9.00;99.90;;;;;;5097690;28;19928;-83
2023/04/07 06:08:38;;;;;;;;;;;9.00;99.90;;;;;;5098074;28;20398;-81
2023/04/07 06:11:07;;;;;;;;;;;9.00;99.90;;;;;;5087154;28;19940;-79
2023/04/07 06:13:34;;;;;;;;;;;9.00;99.90;;;;;;5085515;28;19924;-84
2023/04/07 06:16:01;;;;;;;;;;;9.00;99.90;;;;;;5088834;28;19932;-84
2023/04/07 06:18:28;;;;;;;;;;;9.00;99.90;;;;;;5097153;28;20039;-82
2023/04/07 06:20:55;;;;;;;;;;;9.00;99.90;;;;;;5086765;28;19957;-81
2023/04/07 06:23:22;;;;;;;;;;;9.00;99.90;;;;;;5096421;28;19950;-84
2023/04/07 06:25:51;;;;;;;;;;;9.00;99.90;;;;;;5089680;28;19973;-81
2023/04/07 06:28:20;;;;;;;;;;;9.00;99.90;;;;;;5083142;28;19947;-81
2023/04/07 06:30:49;;;;;;;;;;;9.00;99.90;;;;;;5089897;28;19929;-85
2023/04/07 06:33:18;;;;;;;;;;;9.00;99.90;;;;;;5086752;28;19955;-85
2023/04/07 06:35:46;;;;;;;;;;;9.10;99.90;;;;;;5096045;28;19997;-84
2023/04/07 06:38:13;;;;;;;;;;;9.10;99.90;;;;;;5086143;28;19932;-83
2023/04/07 06:40:41;;;;;;;;;;;8.00;99.90;;;;;;5068913;28;19928;-85
2023/04/07 06:43:08;;;;;;;;;;;9.10;99.90;;;;;;5097179;28;20376;-83
2023/04/07 06:45:49;;;;;;;;;;;9.20;99.90;;;;;;5093129;28;19925;-83
2023/04/07 06:48:16;;;;;;;;;;;9.20;99.90;;;;;;5082972;28;19944;-83
2023/04/07 06:50:46;;;;;;;;;;;9.30;99.90;;;;;;5081104;28;20458;-83
2023/04/07 06:53:13;;;;;;;;;;;9.40;99.90;;;;;;5096686;28;19942;-83
2023/04/07 06:55:40;;;;;;;;;;;9.40;99.90;;;;;;5095852;28;19983;-83
2023/04/07 06:58:07;;;;;;;;;;;9.50;99.90;;;;;;5086958;28;19935;-83
2023/04/07 07:00:34;;;;;;;;;;;9.50;99.90;;;;;;5087017;28;19932;-82
2023/04/07 07:03:03;;;;;;;;;;;9.60;99.90;;;;;;5078557;28;20394;-83
2023/04/07 07:05:30;;;;;;;;;;;9.70;99.90;;;;;;5096161;28;19978;-83
2023/04/07 07:07:57;;;;;;;;;;;9.70;99.90;;;;;;5097582;28;19955;-83
2023/04/07 07:10:24;;;;;;;;;;;9.90;99.90;;;;;;5100912;28;19936;-84
2023/04/07 07:12:51;;;;;;;;;;;10.10;99.90;;;;;;5101573;28;19989;-83
2023/04/07 07:15:18;;;;;;;;;;;10.20;99.90;;;;;;5102195;28;19924;-84
2023/04/07 07:17:45;;;;;;;;;;;10.20;99.90;;;;;;5084180;28;20372;-83
2023/04/07 07:20:13;;;;;;;;;;;10.20;99.90;;;;;;5082308;28;19966;-83
2023/04/07 07:22:41;;;;;;;;;;;10.20;99.90;;;;;;5083622;28;19944;-83
2023/04/07 07:25:12;;;;;;;;;;;10.30;99.90;;;;;;5081946;28;19944;-82
2023/04/07 07:27:39;;;;;;;;;;;10.30;99.90;;;;;;5083887;28;20310;-82
2023/04/07 07:30:07;;;;;;;;;;;10.40;99.90;;;;;;5099109;28;19928;-83
2023/04/07 07:32:34;;;;;;;;;;;10.40;99.90;;;;;;5099313;28;19973;-83
2023/04/07 07:35:02;;;;;;;;;;;10.30;99.90;;;;;;5084289;28;19999;-82
2023/04/07 07:37:30;;;;;;;;;;;10.50;99.90;;;;;;5081874;28;19959;-82
2023/04/07 07:39:58;;;;;;;;;;;10.50;99.90;;;;;;5076493;28;19992;-82
2023/04/07 07:42:34;;;;;;;;;;;10.40;99.90;;;;;;5096970;28;19950;-82
2023/04/07 07:45:01;;;;;;;;;;;10.30;99.90;;;;;;5100958;28;19932;-82
2023/04/07 07:47:30;;;;;;;;;;;10.30;99.90;;;;;;5099751;28;19924;-82
2023/04/07 07:49:57;;;;;;;;;;;10.20;99.90;;;;;;5067738;28;19931;-82
2023/04/07 07:52:28;;;;;;;;;;;10.20;99.90;;;;;;5098299;28;20041;-83
2023/04/07 07:54:57;;;;;;;;;;;10.20;99.90;;;;;;5098408;28;19965;-82
2023/04/07 07:57:25;;;;;;;;;;;10.30;99.90;;;;;;5088299;28;20342;-83
2023/04/07 07:59:53;;;;;;;;;;;10.30;99.90;;;;;;5080025;28;19927;-83
2023/04/07 08:02:20;;;;;;;;;;;10.30;99.90;;;;;;5082132;28;20033;-83
2023/04/07 08:04:47;;;;;;;;;;;10.40;99.90;;;;;;5080394;28;19924;-82
2023/04/07 08:07:15;;;;;;;;;;;10.40;99.90;;;;;;5086763;28;19924;-84
2023/04/07 08:09:44;;;;;;;;;;;10.50;99.90;;;;;;5104113;28;19928;-84
2023/04/07 08:12:13;;;;;;;;;;;10.50;99.90;;;;;;5103981;28;20307;-82
2023/04/07 08:14:40;;;;;;;;;;;10.40;99.90;;;;;;5084843;28;19974;-81
2023/04/07 08:17:07;;;;;;;;;;;10.40;99.90;;;;;;5105403;28;19941;-81
2023/04/07 08:19:35;;;;;;;;;;;10.40;99.90;;;;;;5094668;28;20380;-83
2023/04/07 08:22:46;;;;;;;;;;;10.30;99.90;;;;;;5105013;28;19924;-83
2023/04/07 08:25:24;;;;;;;;;;;10.30;99.90;;;;;;5080800;28;19929;-83
2023/04/07 08:27:53;;;;;;;;;;;10.20;99.90;;;;;;5082525;28;19928;-83
2023/04/07 08:30:24;;;;;;;;;;;10.20;99.90;;;;;;5085584;28;20575;-84
2023/04/07 08:32:51;;;;;;;;;;;10.20;99.90;;;;;;5096289;28;19928;-84
2023/04/07 08:35:39;;;;;;;;;;;10.20;99.90;;;;;;5103344;28;19982;-84
2023/04/07 08:38:07;;;;;;;;;;;10.20;99.90;;;;;;5108032;28;19928;-82
2023/04/07 08:40:36;;;;;;;;;;;10.20;99.90;;;;;;5104208;28;19924;-81
2023/04/07 08:43:08;;;;;;;;;;;10.10;99.90;;;;;;5103304;28;20019;-81
2023/04/07 08:45:38;;;;;;;;;;;10.10;99.90;;;;;;5103179;28;20185;-81
2023/04/07 08:48:09;;;;;;;;;;;10.10;99.90;;;;;;5096172;28;19912;-83
2023/04/07 08:51:03;;;;;;;;;;;10.10;99.90;;;;;;5085031;28;19944;-83
2023/04/07 08:53:38;;;;;;;;;;;10.00;99.90;;;;;;5088343;28;19934;-83
2023/04/07 08:56:08;;;;;;;;;;;10.00;99.90;;;;;;5083353;28;20002;-83
2023/04/07 08:58:39;;;;;;;;;;;10.00;99.90;;;;;;5093679;28;19950;-85
2023/04/07 09:01:06;;;;;;;;;;;10.00;99.90;;;;;;5096395;28;20363;-83
2023/04/07 09:03:34;;;;;;;;;;;10.10;99.90;;;;;;5103361;28;19997;-83
2023/04/07 09:06:04;;;;;;;;;;;10.10;99.90;;;;;;5102936;28;19924;-82
2023/04/07 09:08:32;;;;;;;;;;;10.20;99.90;;;;;;5104307;28;20371;-82
2023/04/07 09:11:01;;;;;;;;;;;10.20;99.90;;;;;;5104373;28;19924;-82
2023/04/07 09:13:32;;;;;;;;;;;10.30;99.90;;;;;;5104949;28;20377;-83
2023/04/07 09:16:02;;;;;;;;;;;10.30;99.90;;;;;;5098096;28;20299;-83
2023/04/07 09:18:30;;;;;;;;;;;10.30;99.90;;;;;;5093259;28;19928;-83
2023/04/07 09:21:00;;;;;;;;;;;10.40;99.90;;;;;;5103927;28;19927;-84
2023/04/07 09:23:31;;;;;;;;;;;10.40;99.90;;;;;;5102130;28;20001;-85
2023/04/07 09:26:05;;;;;;;;;;;10.50;99.90;;;;;;5081196;28;19930;-82
2023/04/07 09:28:42;;;;;;;;;;;10.60;99.90;;;;;;5109764;28;19935;-82
2023/04/07 09:31:22;;;;;;;;;;;10.60;99.90;;;;;;5087004;28;19952;-82
2023/04/07 09:33:50;;;;;;;;;;;10.60;99.90;;;;;;5093936;28;19919;-82
2023/04/07 09:36:18;;;;;;;;;;;10.60;99.90;;;;;;5103807;28;20004;-83
2023/04/07 09:38:53;;;;;;;;;;;10.70;99.90;;;;;;5102440;28;19912;-82
2023/04/07 09:41:28;;;;;;;;;;;10.80;99.90;;;;;;5086167;28;19932;-84
2023/04/07 09:43:58;;;;;;;;;;;10.90;99.90;;;;;;5085866;28;19928;-82
2023/04/07 09:46:28;;;;;;;;;;;10.90;99.90;;;;;;5079605;28;19924;-83
2023/04/07 09:49:02;;;;;;;;;;;11.00;99.90;;;;;;5078968;28;19956;-84
2023/04/07 09:51:29;;;;;;;;;;;11.10;99.90;;;;;;5083381;28;19929;-84
2023/04/07 09:53:56;;;;;;;;;;;11.20;99.90;;;;;;5085738;28;19935;-84
2023/04/07 09:56:26;;;;;;;;;;;11.20;99.90;;;;;;5083668;28;20358;-82
2023/04/07 09:58:53;;;;;;;;;;;11.10;99.90;;;;;;5081771;28;19933;-84
2023/04/07 10:01:20;;;;;;;;;;;11.10;99.90;;;;;;5081944;28;20048;-83
2023/04/07 10:03:49;;;;;;;;;;;11.00;99.90;;;;;;5081004;28;19924;-82
2023/04/07 10:06:20;;;;;;;;;;;10.90;99.90;;;;;;5080516;28;19929;-83
2023/04/07 10:08:47;;;;;;;;;;;10.90;99.90;;;;;;5083575;28;19999;-80
2023/04/07 10:11:15;;;;;;;;;;;10.90;99.90;;;;;;5081717;28;19924;-82
2023/04/07 10:13:47;;;;;;;;;;;10.90;99.90;;;;;;5084099;28;19928;-84
2023/04/07 10:16:15;;;;;;;;;;;10.90;99.90;;;;;;5084452;28;19925;-82
2023/04/07 10:18:42;;;;;;;;;;;11.10;99.90;;;;;;5081388;28;19951;-83
2023/04/07 10:21:19;;;;;;;;;;;11.20;99.90;;;;;;5084532;28;19924;-83
2023/04/07 10:23:54;;;;;;;;;;;11.20;99.90;;;;;;5080191;28;19932;-82
2023/04/07 10:26:25;;;;;;;;;;;11.20;99.90;;;;;;5088439;28;20578;-83
2023/04/07 10:28:55;;;;;;;;;;;11.20;99.90;;;;;;5099167;28;19935;-82
2023/04/07 10:31:23;;;;;;;;;;;11.20;99.90;;;;;;5094903;28;19952;-82
2023/04/07 10:33:50;;;;;;;;;;;11.20;99.90;;;;;;5079115;28;19928;-84
2023/04/07 10:36:20;;;;;;;;;;;11.20;99.90;;;;;;5094862;28;19932;-82
2023/04/07 10:39:11;;;;;;;;;;;11.10;99.90;;;;;;5084572;28;20474;-83
2023/04/07 10:41:40;;;;;;;;;;;11.10;99.90;;;;;;5082400;28;19930;-79
2023/04/07 10:44:07;;;;;;;;;;;11.00;99.90;;;;;;5080643;28;19935;-82
2023/04/07 10:47:05;;;;;;;;;;;11.00;99.90;;;;;;5081521;28;19924;-82
2023/04/07 10:49:52;;;;;;;;;;;10.90;99.90;;;;;;5027739;28;19925;-84
2023/04/07 10:52:28;;;;;;;;;;;10.90;99.90;;;;;;5092767;28;19924;-81
2023/04/07 10:55:18;;;;;;;;;;;11.00;99.90;;;;;;5081447;28;19925;-84
2023/04/07 10:58:13;;;;;;;;;;;11.00;99.90;;;;;;5079117;28;19956;-83
2023/04/07 11:00:40;;;;;;;;;;;11.10;99.90;;;;;;5093437;28;19955;-83
2023/04/07 11:03:11;;;;;;;;;;;11.40;99.90;;;;;;5099750;28;19928;-80
2023/04/07 11:05:41;;;;;;;;;;;11.60;99.90;;;;;;5091724;28;19940;-82
2023/04/07 11:08:12;;;;;;;;;;;11.80;99.90;;;;;;5088037;28;19966;-84
2023/04/07 11:10:39;;;;;;;;;;;12.10;99.90;;;;;;5088397;28;19952;-86
2023/04/07 11:13:07;;;;;;;;;;;12.40;99.90;;;;;;5093563;28;19928;-86
2023/04/07 11:15:38;;;;;;;;;;;12.80;99.90;;;;;;5085843;28;19928;-83
2023/04/07 11:18:15;;;;;;;;;;;13.30;99.90;;;;;;5084055;28;20030;-84
2023/04/07 11:20:46;;;;;;;;;;;13.80;99.90;;;;;;5093158;28;20019;-83
2023/04/07 11:23:16;;;;;;;;;;;14.30;99.90;;;;;;5083369;28;19917;-83
2023/04/07 11:25:44;;;;;;;;;;;14.70;99.90;;;;;;5081364;28;19931;-83
2023/04/07 11:28:12;;;;;;;;;;;15.00;99.90;;;;;;5081465;28;19924;-83
2023/04/07 11:30:39;;;;;;;;;;;15.10;99.90;;;;;;5090352;28;19929;-84
2023/04/07 11:33:07;;;;;;;;;;;15.30;99.90;;;;;;5071593;28;19936;-84
2023/04/07 11:35:35;;;;;;;;;;;15.30;99.90;;;;;;5062221;28;19935;-85
2023/04/07 11:38:03;;;;;;;;;;;15.50;99.90;;;;;;5076606;28;19924;-84
2023/04/07 11:40:35;;;;;;;;;;;15.80;99.90;;;;;;5104572;28;20356;-84
2023/04/07 11:43:03;;;;;;;;;;;15.70;99.90;;;;;;5103781;28;19928;-84
2023/04/07 11:45:30;;;;;;;;;;;15.50;99.90;;;;;;5083925;28;20037;-83
2023/04/07 11:47:58;;;;;;;;;;;15.30;99.90;;;;;;5088267;28;19951;-84
2023/04/07 11:50:42;;;;;;;;;;;15.40;99.90;;;;;;5094390;28;19929;-84
2023/04/07 11:53:10;;;;;;;;;;;15.40;99.90;;;;;;5082167;28;19928;-84
2023/04/07 11:55:38;;;;;;;;;;;15.30;99.90;;;;;;5081802;28;19962;-83
2023/04/07 11:58:08;;;;;;;;;;;15.40;99.90;;;;;;5091377;28;19928;-84
2023/04/07 12:00:36;;;;;;;;;;;15.70;99.90;;;;;;5083711;28;19928;-84
2023/04/07 12:03:11;;;;;;;;;;;15.80;99.90;;;;;;5083023;28;19929;-84
2023/04/07 12:05:42;;;;;;;;;;;16.00;99.90;;;;;;5079399;28;19929;-83
2023/04/07 12:08:09;;;;;;;;;;;15.90;99.90;;;;;;5096159;28;19920;-84
2023/04/07 12:10:39;;;;;;;;;;;15.50;99.90;;;;;;5087265;28;19931;-83
2023/04/07 12:13:06;;;;;;;;;;;15.10;99.90;;;;;;5106449;28;19925;-83
2023/04/07 12:15:33;;;;;;;;;;;14.70;99.90;;;;;;5080010;28;19938;-83
2023/04/07 12:18:01;;;;;;;;;;;14.40;99.90;;;;;;5085982;28;19928;-83
2023/04/07 12:20:28;;;;;;;;;;;14.30;99.90;;;;;;5075372;28;19939;-83
2023/04/07 12:22:55;;;;;;;;;;;14.10;99.90;;;;;;5079651;28;19932;-83
2023/04/07 12:25:22;;;;;;;;;;;13.90;99.90;;;;;;5096193;28;19947;-83
2023/04/07 12:27:53;;;;;;;;;;;13.80;99.90;;;;;;5090576;28;19929;-84
2023/04/07 12:30:20;;;;;;;;;;;13.70;99.90;;;;;;5088957;28;19928;-84
2023/04/07 12:32:47;;;;;;;;;;;13.60;99.90;;;;;;5088008;28;19928;-83
2023/04/07 12:35:14;;;;;;;;;;;13.60;99.90;;;;;;5074049;28;19935;-83
2023/04/07 12:37:41;;;;;;;;;;;13.50;99.90;;;;;;5061908;28;19937;-82
2023/04/07 12:40:09;;;;;;;;;;;13.30;99.90;;;;;;5078085;28;19928;-83
2023/04/07 12:42:38;;;;;;;;;;;13.20;99.90;;;;;;5084549;28;20039;-83
2023/04/07 12:45:08;;;;;;;;;;;13.10;99.90;;;;;;5095824;28;20232;-82
2023/04/07 12:47:36;;;;;;;;;;;13.10;99.90;;;;;;5093669;28;19931;-81
2023/04/07 12:50:03;;;;;;;;;;;13.00;99.90;;;;;;5070488;28;20323;-80
2023/04/07 12:52:30;;;;;;;;;;;13.00;99.90;;;;;;5092762;28;20015;-81
2023/04/07 12:54:58;;;;;;;;;;;12.90;99.90;;;;;;5097697;28;19912;-80
2023/04/07 12:57:25;;;;;;;;;;;13.00;99.90;;;;;;5087338;28;19967;-81
2023/04/07 12:59:52;;;;;;;;;;;13.00;99.90;;;;;;5074079;28;19928;-80
2023/04/07 13:02:20;;;;;;;;;;;13.10;99.90;;;;;;5075852;28;19932;-82
2023/04/07 13:04:47;;;;;;;;;;;12.90;99.90;;;;;;5103160;28;19921;-81
2023/04/07 13:07:14;;;;;;;;;;;12.80;99.90;;;;;;5081881;28;19928;-81
2023/04/07 13:09:42;;;;;;;;;;;12.70;99.90;;;;;;5096386;28;19987;-82
2023/04/07 13:12:10;;;;;;;;;;;12.60;99.90;;;;;;5087861;28;20027;-81
2023/04/07 13:14:38;;;;;;;;;;;12.60;99.90;;;;;;5076635;28;19928;-82
2023/04/07 13:17:05;;;;;;;;;;;12.80;99.90;;;;;;5090386;28;19928;-81
2023/04/07 13:19:33;;;;;;;;;;;12.90;99.90;;;;;;5094151;28;19928;-81
2023/04/07 13:22:01;;;;;;;;;;;13.10;99.90;;;;;;5072320;28;19928;-80
2023/04/07 13:24:29;;;;;;;;;;;13.20;99.90;;;;;;5086975;28;19932;-80
2023/04/07 13:26:57;;;;;;;;;;;13.30;99.90;;;;;;5083841;28;19927;-80
2023/04/07 13:29:24;;;;;;;;;;;13.40;99.90;;;;;;5082872;28;19932;-80
2023/04/07 13:31:51;;;;;;;;;;;13.40;99.90;;;;;;5079726;28;20349;-79
2023/04/07 13:34:18;;;;;;;;;;;13.40;99.90;;;;;;5077212;28;20011;-80
2023/04/07 13:36:47;;;;;;;;;;;13.20;99.90;;;;;;5091459;28;19931;-80
2023/04/07 13:39:14;;;;;;;;;;;13.10;99.90;;;;;;5083960;28;19929;-80
2023/04/07 13:41:41;;;;;;;;;;;13.00;99.90;;;;;;5078016;28;19928;-80
2023/04/07 13:44:08;;;;;;;;;;;13.10;99.90;;;;;;5072896;28;19933;-80
2023/04/07 13:46:35;;;;;;;;;;;13.30;99.90;;;;;;5077522;28;19935;-80
2023/04/07 13:49:02;;;;;;;;;;;13.40;99.90;;;;;;5083048;28;19933;-80
2023/04/07 13:51:29;;;;;;;;;;;13.40;99.90;;;;;;5074945;28;20031;-80
2023/04/07 13:53:58;;;;;;;;;;;13.40;99.90;;;;;;5095937;28;19924;-81
2023/04/07 13:56:25;;;;;;;;;;;13.50;99.90;;;;;;5091260;28;20252;-81
2023/04/07 13:58:53;;;;;;;;;;;13.50;99.90;;;;;;5085159;28;19925;-81
2023/04/07 14:01:20;;;;;;;;;;;13.40;99.90;;;;;;5088005;28;19924;-81
2023/04/07 14:03:49;;;;;;;;;;;13.30;99.90;;;;;;5096846;28;20379;-81
2023/04/07 14:06:17;;;;;;;;;;;13.40;99.90;;;;;;5091806;28;19912;-81
2023/04/07 14:08:45;;;;;;;;;;;13.30;99.90;;;;;;5082452;28;19995;-81
2023/04/07 14:11:16;;;;;;;;;;;13.20;99.90;;;;;;5082480;28;19951;-81
2023/04/07 14:13:43;;;;;;;;;;;13.20;99.90;;;;;;5081652;28;19970;-81
2023/04/07 14:16:10;;;;;;;;;;;13.00;99.90;;;;;;5094429;28;19924;-81
2023/04/07 14:18:37;;;;;;;;;;;12.90;99.90;;;;;;5098567;28;19939;-81
2023/04/07 14:21:05;;;;;;;;;;;12.80;99.90;;;;;;5101392;28;19924;-81
2023/04/07 14:23:33;;;;;;;;;;;12.60;99.90;;;;;;5105303;28;20241;-79
2023/04/07 14:26:01;;;;;;;;;;;12.60;99.90;;;;;;5089979;28;20373;-81
2023/04/07 14:28:29;;;;;;;;;;;12.60;99.90;;;;;;5100154;28;19935;-81
2023/04/07 14:30:56;;;;;;;;;;;12.60;99.90;;;;;;5080202;28;19935;-81
2023/04/07 14:33:23;;;;;;;;;;;12.70;99.90;;;;;;5088261;28;19977;-81
2023/04/07 14:35:51;;;;;;;;;;;12.80;99.90;;;;;;5078597;28;19955;-81
2023/04/07 14:38:22;;;;;;;;;;;12.90;99.90;;;;;;5063305;28;19932;-81